createdAt,value
2017-01-02T00:02:45.923Z,0
2017-01-02T00:07:45.877Z,0
2017-01-02T00:12:45.477Z,0
2017-01-02T00:17:45.827Z,0
2017-01-02T00:22:45.423Z,0
2017-01-02T00:27:45.787Z,0
2017-01-02T00:32:45.361Z,0
2017-01-02T00:37:45.730Z,0
2017-01-02T00:42:45.328Z,0
2017-01-02T00:47:45.706Z,0
2017-01-02T00:52:45.652Z,0
2017-01-02T00:57:44.842Z,0
2017-01-02T01:02:45.239Z,0
2017-01-02T01:07:45.188Z,0
2017-01-02T01:12:45.154Z,0
2017-01-02T01:17:44.745Z,0
2017-01-02T01:22:45.115Z,0
2017-01-02T01:27:44.687Z,0
2017-01-02T01:32:45.058Z,0
2017-01-02T01:37:44.638Z,0
2017-01-02T01:42:44.994Z,0
2017-01-02T01:47:45.354Z,0
2017-01-02T01:52:44.938Z,0
2017-01-02T01:57:44.930Z,0
2017-01-02T02:02:44.880Z,0
2017-01-02T02:07:44.464Z,0
2017-01-02T02:12:44.862Z,0
2017-01-02T02:17:44.794Z,0
2017-01-02T02:22:45.152Z,0
2017-01-02T02:27:45.137Z,0
2017-01-02T02:32:45.103Z,0
2017-01-02T02:37:45.068Z,0
2017-01-02T02:42:44.647Z,0
2017-01-02T02:47:45.059Z,0
2017-01-02T02:52:44.997Z,0
2017-01-02T02:57:44.564Z,0
2017-01-02T03:02:44.538Z,0
2017-01-02T03:07:44.509Z,0
2017-01-02T03:12:44.860Z,0
2017-01-02T03:17:44.845Z,0
2017-01-02T03:22:44.798Z,0
2017-01-02T03:27:44.386Z,0
2017-01-02T03:32:44.739Z,0
2017-01-02T03:37:44.328Z,0
2017-01-02T03:42:44.681Z,0
2017-01-02T03:47:44.650Z,0
2017-01-02T03:52:44.226Z,0
2017-01-02T03:57:44.598Z,0
2017-01-02T04:02:43.773Z,0
2017-01-02T04:07:44.139Z,0
2017-01-02T04:12:44.501Z,0
2017-01-02T04:17:43.711Z,0
2017-01-02T04:22:44.433Z,0
2017-01-02T04:27:44.002Z,0
2017-01-02T04:32:44.362Z,0
2017-01-02T04:37:44.327Z,0
2017-01-02T04:42:43.910Z,0
2017-01-02T04:47:43.872Z,0
2017-01-02T04:52:44.233Z,0
2017-01-02T04:57:44.188Z,0
2017-01-02T05:02:44.151Z,0
2017-01-02T05:07:44.141Z,0
2017-01-02T05:12:43.318Z,0
2017-01-02T05:17:44.055Z,0
2017-01-02T05:22:44.024Z,0
2017-01-02T05:27:43.991Z,0
2017-01-02T05:32:43.568Z,0
2017-01-02T05:37:43.532Z,0
2017-01-02T05:42:43.882Z,0
2017-01-02T05:47:43.848Z,0
2017-01-02T05:52:43.424Z,0
2017-01-02T05:57:43.402Z,0
2017-01-02T06:02:43.353Z,0
2017-01-02T06:07:43.720Z,0
2017-01-02T06:12:43.681Z,0
2017-01-02T06:17:43.644Z,0
2017-01-02T06:22:43.245Z,0
2017-01-02T06:27:43.575Z,0
2017-01-02T06:32:43.154Z,0
2017-01-02T06:37:43.113Z,0
2017-01-02T06:42:43.075Z,0
2017-01-02T06:47:43.423Z,0
2017-01-02T06:52:43.015Z,0
2017-01-02T06:57:43.359Z,0
2017-01-02T07:02:42.934Z,0
2017-01-02T07:07:43.299Z,0
2017-01-02T07:12:43.281Z,0
2017-01-02T07:17:42.477Z,4
2017-01-02T07:22:42.842Z,4
2017-01-02T07:27:43.217Z,16
2017-01-02T07:32:42.023Z,28
2017-01-02T07:37:43.181Z,48
2017-01-02T07:42:43.159Z,72
2017-01-02T07:47:43.130Z,120
2017-01-02T07:52:43.113Z,160
2017-01-02T07:57:42.705Z,204
2017-01-02T08:02:43.082Z,272
2017-01-02T08:07:42.662Z,380
2017-01-02T08:12:42.242Z,476
2017-01-02T08:17:43.011Z,544
2017-01-02T08:22:42.620Z,560
2017-01-02T08:27:42.971Z,616
2017-01-02T08:32:42.936Z,700
2017-01-02T08:37:42.920Z,660
2017-01-02T08:42:42.126Z,596
2017-01-02T08:47:42.488Z,624
2017-01-02T08:52:42.466Z,612
2017-01-02T08:57:42.446Z,648
2017-01-02T09:02:42.810Z,672
2017-01-02T09:07:42.403Z,760
2017-01-02T09:12:42.380Z,868
2017-01-02T09:17:42.766Z,1132
2017-01-02T09:22:42.753Z,1472
2017-01-02T09:27:42.711Z,1544
2017-01-02T09:32:42.681Z,1568
2017-01-02T09:37:41.885Z,1612
2017-01-02T09:42:42.243Z,1740
2017-01-02T09:47:42.609Z,1892
2017-01-02T09:52:42.199Z,2004
2017-01-02T09:57:42.565Z,2168
2017-01-02T10:02:42.157Z,2244
2017-01-02T10:07:42.523Z,2216
2017-01-02T10:12:41.728Z,2688
2017-01-02T10:17:42.480Z,3652
2017-01-02T10:22:41.677Z,4328
2017-01-02T10:27:42.449Z,4632
2017-01-02T10:32:42.037Z,4576
2017-01-02T10:37:41.239Z,4048
2017-01-02T10:42:41.999Z,3384
2017-01-02T10:47:41.984Z,3488
2017-01-02T10:52:41.961Z,3968
2017-01-02T10:57:42.338Z,4476
2017-01-02T11:02:42.326Z,2724
2017-01-02T11:07:41.912Z,4640
2017-01-02T11:12:42.271Z,7124
2017-01-02T11:17:41.876Z,9320
2017-01-02T11:22:41.889Z,7964
2017-01-02T11:27:41.850Z,10492
2017-01-02T11:32:42.252Z,12392
2017-01-02T11:37:42.212Z,55424
2017-01-02T11:42:41.430Z,21984
2017-01-02T11:47:42.200Z,6820
2017-01-02T11:52:42.194Z,14672
2017-01-02T11:57:41.798Z,17504
2017-01-02T12:02:41.800Z,6256
2017-01-02T12:07:41.789Z,4832
2017-01-02T12:12:41.777Z,6744
2017-01-02T12:17:42.285Z,6300
2017-01-02T12:22:41.346Z,6512
2017-01-02T12:27:42.129Z,4616
2017-01-02T12:32:42.102Z,4056
2017-01-02T12:37:41.696Z,3024
2017-01-02T12:42:41.677Z,2204
2017-01-02T12:47:41.665Z,2120
2017-01-02T12:52:42.035Z,1852
2017-01-02T12:57:42.029Z,1664
2017-01-02T13:02:42.007Z,1964
2017-01-02T13:07:41.603Z,1960
2017-01-02T13:12:41.965Z,1840
2017-01-02T13:17:41.953Z,1580
2017-01-02T13:22:41.537Z,1428
2017-01-02T13:27:41.131Z,1328
2017-01-02T13:32:41.498Z,1272
2017-01-02T13:37:41.086Z,1012
2017-01-02T21:22:51.325Z,0
2017-01-02T21:27:50.923Z,0
2017-01-02T21:32:52.067Z,0
2017-01-02T21:37:51.651Z,0
2017-01-02T21:42:51.562Z,0
2017-01-02T21:47:51.535Z,0
2017-01-02T21:52:51.917Z,0
2017-01-02T21:57:51.898Z,0
2017-01-02T22:02:51.843Z,0
2017-01-02T22:07:51.424Z,0
2017-01-02T22:12:51.405Z,0
2017-01-02T22:17:51.765Z,0
2017-01-02T22:22:51.346Z,0
2017-01-02T22:27:51.701Z,0
2017-01-02T22:32:51.668Z,0
2017-01-02T22:37:51.248Z,0
2017-01-02T22:42:50.827Z,0
2017-01-02T22:47:50.808Z,0
2017-01-02T22:52:51.553Z,0
2017-01-02T22:57:50.752Z,0
2017-01-02T23:02:51.470Z,0
2017-01-02T23:07:51.444Z,0
2017-01-02T23:12:51.023Z,0
2017-01-02T23:17:50.996Z,0
2017-01-02T23:22:50.575Z,0
2017-01-02T23:27:51.342Z,0
2017-01-02T23:32:50.900Z,0
2017-01-02T23:37:50.861Z,0
2017-01-02T23:42:50.449Z,0
2017-01-02T23:47:51.201Z,0
2017-01-02T23:52:51.150Z,0
2017-01-02T23:57:50.738Z,0
